createdAt,value
2022-08-20T00:00:00.145Z,0.00
2022-08-20T00:10:00.078Z,0.00
2022-08-20T00:20:00.126Z,0.00
2022-08-20T00:30:00.450Z,0.00
2022-08-20T00:40:00.181Z,0.00
2022-08-20T00:50:00.098Z,0.00
2022-08-20T01:00:00.159Z,0.00
2022-08-20T01:10:00.111Z,0.00
2022-08-20T01:20:00.113Z,0.00
2022-08-20T01:30:00.105Z,0.00
2022-08-20T01:40:00.911Z,0.00
2022-08-20T01:50:00.121Z,0.00
2022-08-20T02:00:00.125Z,0.00
2022-08-20T02:10:00.101Z,0.00
2022-08-20T02:20:00.068Z,0.00
2022-08-20T02:30:00.110Z,0.00
2022-08-20T02:40:01.508Z,0.00
2022-08-20T02:50:00.084Z,0.00
2022-08-20T03:00:00.102Z,0.00
2022-08-20T03:10:00.078Z,0.00
2022-08-20T03:20:00.096Z,0.00
2022-08-20T03:30:00.139Z,0.34
2022-08-20T03:40:00.241Z,2.94
2022-08-20T03:50:00.099Z,12.68
2022-08-20T04:00:00.141Z,23.33
2022-08-20T04:10:00.125Z,76.25
2022-08-20T04:20:00.079Z,134.17
2022-08-20T04:30:00.136Z,251.67
2022-08-20T04:40:00.207Z,562.92
2022-08-20T04:50:00.153Z,837.50
2022-08-20T05:00:00.138Z,381.67
2022-08-20T05:10:00.103Z,817.92
2022-08-20T05:20:00.148Z,811.25
2022-08-20T05:30:00.114Z,1337.92
2022-08-20T05:40:00.196Z,1280.00
2022-08-20T05:50:00.136Z,1573.75
2022-08-20T06:00:00.153Z,1468.33
2022-08-20T06:10:00.129Z,1373.75
2022-08-20T06:20:00.096Z,1319.58
2022-08-20T06:30:00.140Z,2136.25
2022-08-20T06:40:01.057Z,1999.58
2022-08-20T06:50:00.142Z,2402.08
2022-08-20T07:00:00.147Z,2265.00
2022-08-20T07:10:00.144Z,1936.67
2022-08-20T07:20:00.126Z,1685.83
2022-08-20T07:30:00.147Z,1557.92
2022-08-20T07:40:00.211Z,1462.50
2022-08-20T07:50:00.106Z,2208.33
2022-08-20T08:00:00.148Z,2992.08
2022-08-20T08:10:00.110Z,4192.92
2022-08-20T08:20:00.092Z,2236.67
2022-08-20T08:30:00.126Z,2381.25
2022-08-20T08:40:00.215Z,3714.58
2022-08-20T08:50:00.078Z,3772.08
2022-08-20T09:00:03.672Z,4396.25
2022-08-20T09:10:00.108Z,5392.92
2022-08-20T09:20:00.083Z,1141.67
2022-08-20T09:30:00.111Z,2530.00
2022-08-20T09:40:00.133Z,5137.08
2022-08-20T09:50:00.132Z,4440.42
2022-08-20T10:00:00.141Z,5086.67
2022-08-20T10:10:00.107Z,5342.50
2022-08-20T10:20:02.950Z,5256.25
2022-08-20T10:30:00.130Z,5256.25
2022-08-20T10:40:01.557Z,5256.25
2022-08-20T10:50:00.110Z,5256.25
2022-08-20T11:00:00.122Z,5256.25
2022-08-20T11:10:00.114Z,5256.25
2022-08-20T11:20:00.136Z,5256.25
2022-08-20T11:30:00.125Z,5256.25
2022-08-20T11:40:00.207Z,5256.25
2022-08-20T11:50:00.154Z,5256.25
2022-08-20T12:00:00.130Z,5256.25
2022-08-20T12:10:00.128Z,5256.25
2022-08-20T12:20:00.127Z,5256.25
2022-08-20T12:30:00.142Z,5256.25
2022-08-20T12:40:00.221Z,5256.25
2022-08-20T12:50:01.870Z,5256.25
2022-08-20T13:00:00.110Z,5256.25
2022-08-20T13:10:00.115Z,5256.25
2022-08-20T13:20:00.123Z,5256.25
2022-08-20T13:30:00.128Z,5256.25
2022-08-20T13:40:00.234Z,5256.25
2022-08-20T13:50:00.134Z,5256.25
2022-08-20T14:00:00.120Z,5256.25
2022-08-20T14:10:00.137Z,5256.25
2022-08-20T14:20:01.243Z,5256.25
2022-08-20T14:30:00.136Z,5256.25
2022-08-20T14:40:02.237Z,5256.25
2022-08-20T14:50:00.120Z,5256.25
2022-08-20T15:00:00.125Z,5256.25
2022-08-20T15:10:00.127Z,5256.25
2022-08-20T15:20:00.119Z,5256.25
2022-08-20T15:30:00.082Z,5256.25
2022-08-20T15:40:00.281Z,5256.25
2022-08-20T15:50:00.279Z,5256.25
2022-08-20T16:00:00.107Z,5256.25
2022-08-20T16:10:00.928Z,5256.25
2022-08-20T16:20:00.124Z,5256.25
2022-08-20T16:30:00.096Z,5256.25
2022-08-20T16:40:00.225Z,5256.25
2022-08-20T16:50:00.076Z,5256.25
2022-08-20T17:00:00.125Z,5256.25
2022-08-20T17:10:00.133Z,5256.25
2022-08-20T17:20:00.120Z,5256.25
2022-08-20T17:30:00.097Z,5256.25
2022-08-20T17:40:00.233Z,5256.25
2022-08-20T17:50:01.955Z,5256.25
2022-08-20T18:00:02.259Z,5256.25
2022-08-20T18:10:00.118Z,5256.25
2022-08-20T18:20:00.117Z,5256.25
2022-08-20T18:30:00.144Z,5256.25
2022-08-20T18:40:00.210Z,5256.25
2022-08-20T18:50:00.165Z,5256.25
2022-08-20T19:00:00.155Z,5256.25
2022-08-20T19:10:00.135Z,5256.25
2022-08-20T19:20:00.939Z,5256.25
2022-08-20T19:30:00.151Z,5256.25
2022-08-20T19:40:00.201Z,5256.25
2022-08-20T19:50:00.134Z,5256.25
2022-08-20T20:00:00.161Z,5256.25
2022-08-20T20:10:00.116Z,5256.25
2022-08-20T20:20:01.069Z,5256.25
2022-08-20T20:30:00.124Z,5256.25
2022-08-20T20:40:00.229Z,5256.25
2022-08-20T20:50:00.074Z,5256.25
2022-08-20T21:00:00.163Z,5256.25
2022-08-20T21:10:00.127Z,5256.25
2022-08-20T21:20:00.092Z,5256.25
2022-08-20T21:30:00.144Z,5256.25
2022-08-20T21:40:00.176Z,5256.25
2022-08-20T21:50:00.112Z,5256.25
2022-08-20T22:00:00.121Z,5256.25
2022-08-20T22:10:00.106Z,5256.25
2022-08-20T22:20:00.115Z,5256.25
2022-08-20T22:30:00.128Z,5256.25
2022-08-20T22:40:00.264Z,5256.25
2022-08-20T22:50:00.142Z,5256.25
2022-08-20T23:00:00.100Z,5256.25
2022-08-20T23:10:00.148Z,5256.25
2022-08-20T23:20:00.120Z,5256.25
2022-08-20T23:30:00.138Z,5256.25
2022-08-20T23:40:00.233Z,5256.25
2022-08-20T23:50:00.115Z,5256.25
